createdAt,value
2017-10-03T00:02:20.629Z,14.50
2017-10-03T00:04:49.691Z,14.40
2017-10-03T00:07:17.996Z,14.40
2017-10-03T00:09:47.091Z,14.40
2017-10-03T00:12:16.158Z,14.30
2017-10-03T00:14:44.499Z,14.30
2017-10-03T00:17:12.810Z,14.30
2017-10-03T00:19:41.142Z,14.30
2017-10-03T00:22:09.455Z,14.30
2017-10-03T00:24:37.779Z,14.30
2017-10-03T00:27:06.853Z,14.30
2017-10-03T00:29:35.964Z,14.20
2017-10-03T00:32:05.038Z,14.20
2017-10-03T00:34:33.563Z,14.10
2017-10-03T00:37:01.880Z,14.10
2017-10-03T00:39:30.191Z,14.20
2017-10-03T00:41:58.539Z,14.10
2017-10-03T00:44:26.859Z,14.10
2017-10-03T00:46:55.202Z,14.10
2017-10-03T00:49:24.286Z,14.00
2017-10-03T00:51:52.617Z,14.00
2017-10-03T00:54:20.931Z,14.10
2017-10-03T00:56:49.255Z,14.00
2017-10-03T00:59:17.563Z,14.00
2017-10-03T01:01:45.891Z,14.00
2017-10-03T01:04:14.978Z,14.00
2017-10-03T01:06:43.318Z,14.00
2017-10-03T01:09:11.635Z,14.00
2017-10-03T01:11:39.971Z,14.00
2017-10-03T01:14:08.278Z,13.90
2017-10-03T01:16:36.697Z,13.90
2017-10-03T01:19:04.985Z,13.80
2017-10-03T01:21:33.298Z,13.80
2017-10-03T01:24:01.639Z,13.80
2017-10-03T01:26:29.971Z,13.80
2017-10-03T01:28:59.074Z,13.70
2017-10-03T01:31:28.161Z,13.60
2017-10-03T01:33:56.491Z,13.60
2017-10-03T01:36:24.786Z,13.60
2017-10-03T01:38:53.107Z,13.60
2017-10-03T01:41:22.175Z,13.60
2017-10-03T01:43:51.289Z,13.50
2017-10-03T01:46:19.583Z,13.50
2017-10-03T01:48:48.663Z,13.60
2017-10-03T01:51:16.976Z,13.50
2017-10-03T01:53:45.332Z,13.60
2017-10-03T01:56:13.681Z,13.60
2017-10-03T01:58:42.119Z,13.60
2017-10-03T02:01:10.439Z,13.70
2017-10-03T02:03:38.728Z,13.70
2017-10-03T02:06:07.817Z,13.60
2017-10-03T02:08:36.143Z,13.60
2017-10-03T02:11:04.465Z,13.60
2017-10-03T02:13:33.578Z,13.60
2017-10-03T02:16:02.738Z,13.60
2017-10-03T02:18:31.034Z,13.50
2017-10-03T02:20:59.394Z,13.60
2017-10-03T02:23:28.506Z,13.50
2017-10-03T02:25:57.607Z,13.50
2017-10-03T02:28:26.681Z,13.40
2017-10-03T02:30:55.010Z,13.40
2017-10-03T02:33:23.343Z,13.40
2017-10-03T02:35:52.810Z,13.40
2017-10-03T02:38:21.118Z,13.30
2017-10-03T02:40:49.418Z,13.30
2017-10-03T02:43:17.757Z,13.20
2017-10-03T02:45:46.055Z,13.20
2017-10-03T02:48:14.433Z,13.20
2017-10-03T02:50:42.735Z,13.20
2017-10-03T02:53:11.075Z,13.20
2017-10-03T02:55:39.391Z,13.20
2017-10-03T02:58:07.739Z,13.20
2017-10-03T03:00:36.821Z,13.20
2017-10-03T03:03:05.232Z,13.10
2017-10-03T03:05:34.302Z,13.20
2017-10-03T03:08:02.622Z,13.20
2017-10-03T03:10:30.930Z,13.20
2017-10-03T03:12:59.446Z,13.20
2017-10-03T03:15:28.562Z,13.20
2017-10-03T03:17:57.623Z,13.20
2017-10-03T03:20:25.949Z,13.10
2017-10-03T03:22:54.260Z,13.20
2017-10-03T03:25:22.620Z,13.20
2017-10-03T03:27:50.940Z,13.20
2017-10-03T03:30:19.281Z,13.20
2017-10-03T03:32:47.583Z,13.10
2017-10-03T03:35:16.691Z,13.10
2017-10-03T03:37:45.799Z,13.00
2017-10-03T03:40:14.899Z,13.00
2017-10-03T03:42:43.965Z,13.00
2017-10-03T03:45:13.079Z,13.00
2017-10-03T03:47:41.402Z,12.90
2017-10-03T03:50:09.945Z,12.90
2017-10-03T03:52:38.261Z,12.80
2017-10-03T03:55:06.569Z,12.80
2017-10-03T03:57:34.902Z,12.70
2017-10-03T04:00:03.235Z,12.60
2017-10-03T04:02:32.343Z,12.60
2017-10-03T04:05:00.663Z,12.50
2017-10-03T04:07:29.023Z,12.50
2017-10-03T04:09:57.348Z,12.50
2017-10-03T04:12:25.688Z,12.50
2017-10-03T04:14:54.013Z,12.50
2017-10-03T04:17:23.146Z,12.50
2017-10-03T04:19:51.452Z,12.50
2017-10-03T04:22:19.782Z,12.50
2017-10-03T04:24:48.851Z,12.50
2017-10-03T04:27:18.280Z,12.50
2017-10-03T04:29:46.594Z,12.40
2017-10-03T04:32:14.926Z,12.50
2017-10-03T04:34:43.254Z,12.40
2017-10-03T04:37:11.570Z,12.40
2017-10-03T04:39:40.677Z,12.40
2017-10-03T04:42:09.741Z,12.40
2017-10-03T04:44:38.970Z,12.30
2017-10-03T04:47:07.245Z,12.20
2017-10-03T04:49:35.603Z,12.30
2017-10-03T04:52:04.679Z,12.20
2017-10-03T04:54:33.010Z,12.10
2017-10-03T04:57:01.322Z,12.10
2017-10-03T04:59:29.647Z,12.10
2017-10-03T05:01:57.977Z,12.10
2017-10-03T05:04:26.412Z,12.00
2017-10-03T05:06:54.710Z,11.90
2017-10-03T05:09:23.029Z,12.00
2017-10-03T05:11:51.354Z,11.90
2017-10-03T05:14:19.666Z,11.90
2017-10-03T05:16:48.000Z,11.90
2017-10-03T05:19:16.320Z,11.90
2017-10-03T05:21:44.648Z,11.90
2017-10-03T05:24:13.134Z,11.80
2017-10-03T05:26:41.499Z,11.80
2017-10-03T05:29:10.611Z,11.80
2017-10-03T05:31:39.051Z,11.70
2017-10-03T05:34:07.824Z,11.70
2017-10-03T05:36:36.238Z,11.70
2017-10-03T05:39:04.570Z,11.70
2017-10-03T05:41:32.877Z,11.70
2017-10-03T05:44:02.171Z,11.70
2017-10-03T05:46:30.479Z,11.60
2017-10-03T05:48:58.815Z,11.70
2017-10-03T05:51:27.126Z,11.70
2017-10-03T05:53:55.449Z,11.70
2017-10-03T05:56:23.735Z,11.70
2017-10-03T05:58:52.067Z,11.80
2017-10-03T06:01:20.370Z,11.80
2017-10-03T06:03:48.679Z,11.90
2017-10-03T06:06:17.759Z,12.10
2017-10-03T06:08:46.380Z,12.00
2017-10-03T06:11:15.456Z,12.20
2017-10-03T06:13:44.544Z,12.20
2017-10-03T06:16:12.860Z,12.20
2017-10-03T06:18:41.155Z,12.20
2017-10-03T06:21:09.519Z,12.20
2017-10-03T06:23:37.815Z,12.30
2017-10-03T06:26:06.167Z,12.30
2017-10-03T06:28:34.470Z,12.30
2017-10-03T06:31:02.806Z,12.40
2017-10-03T06:33:31.873Z,12.60
2017-10-03T06:36:00.258Z,12.50
2017-10-03T06:38:28.549Z,12.70
2017-10-03T06:40:56.879Z,12.80
2017-10-03T06:43:25.178Z,12.90
2017-10-03T06:45:54.302Z,13.10
2017-10-03T06:48:22.621Z,13.10
2017-10-03T06:50:50.959Z,13.20
2017-10-03T06:53:20.054Z,13.40
2017-10-03T06:55:48.395Z,13.30
2017-10-03T06:58:16.714Z,13.40
2017-10-03T07:00:45.022Z,13.50
2017-10-03T07:03:13.370Z,13.50
2017-10-03T07:05:41.670Z,13.50
2017-10-03T07:08:10.257Z,13.40
2017-10-03T07:10:39.392Z,13.50
2017-10-03T07:13:07.760Z,13.50
2017-10-03T07:15:36.115Z,13.50
2017-10-03T07:18:04.419Z,13.60
2017-10-03T07:20:32.771Z,13.70
2017-10-03T07:23:01.100Z,13.80
2017-10-03T07:25:30.203Z,13.80
2017-10-03T07:27:58.499Z,13.70
2017-10-03T07:30:26.815Z,13.80
2017-10-03T07:32:55.130Z,13.80
2017-10-03T07:35:23.472Z,13.90
2017-10-03T07:37:52.562Z,13.90
2017-10-03T07:40:20.903Z,13.80
2017-10-03T07:42:49.192Z,13.90
2017-10-03T07:45:17.526Z,14.00
2017-10-03T07:47:46.584Z,14.20
2017-10-03T07:50:14.914Z,14.20
2017-10-03T07:52:43.235Z,14.30
2017-10-03T07:55:11.571Z,14.30
2017-10-03T07:57:39.879Z,14.30
2017-10-03T08:00:08.198Z,14.40
2017-10-03T08:02:36.503Z,14.40
2017-10-03T08:05:04.816Z,14.40
2017-10-03T08:07:33.155Z,14.30
2017-10-03T08:10:01.471Z,14.30
2017-10-03T08:12:29.803Z,14.40
2017-10-03T08:14:58.102Z,14.40
2017-10-03T08:17:26.577Z,14.40
2017-10-03T08:19:54.880Z,14.60
2017-10-03T08:22:23.191Z,14.70
2017-10-03T08:24:51.542Z,14.90
2017-10-03T08:27:19.843Z,15.00
2017-10-03T08:29:48.942Z,15.30
2017-10-03T08:32:17.258Z,15.30
2017-10-03T08:34:45.598Z,15.30
2017-10-03T08:37:14.687Z,15.50
2017-10-03T08:39:43.040Z,15.40
2017-10-03T08:42:11.362Z,15.50
2017-10-03T08:44:40.392Z,15.30
2017-10-03T08:47:08.687Z,15.30
2017-10-03T08:49:37.299Z,15.40
2017-10-03T08:52:05.619Z,15.40
2017-10-03T08:54:33.953Z,15.30
2017-10-03T08:57:02.298Z,15.20
2017-10-03T08:59:30.615Z,15.10
2017-10-03T09:01:58.968Z,15.10
2017-10-03T09:04:28.052Z,15.10
2017-10-03T09:06:57.138Z,15.10
2017-10-03T09:09:25.435Z,15.10
2017-10-03T09:11:53.759Z,15.30
2017-10-03T09:14:22.062Z,15.40
2017-10-03T09:16:50.518Z,15.50
2017-10-03T09:19:18.811Z,15.70
2017-10-03T09:21:47.140Z,15.70
2017-10-03T09:24:15.487Z,15.80
2017-10-03T09:26:44.562Z,16.00
2017-10-03T09:29:12.896Z,16.00
2017-10-03T09:31:41.205Z,16.10
2017-10-03T09:34:09.548Z,16.20
2017-10-03T09:36:37.912Z,16.30
2017-10-03T09:39:06.235Z,16.40
2017-10-03T09:41:34.553Z,16.40
2017-10-03T09:44:02.875Z,16.50
2017-10-03T09:46:31.182Z,16.60
2017-10-03T09:48:59.629Z,16.70
2017-10-03T09:51:27.934Z,16.70
2017-10-03T09:53:57.047Z,16.50
2017-10-03T09:56:25.383Z,16.40
2017-10-03T09:58:53.695Z,16.30
2017-10-03T10:01:22.023Z,16.30
2017-10-03T10:03:50.334Z,16.20
2017-10-03T10:06:19.450Z,16.10
2017-10-03T10:08:47.771Z,16.00
2017-10-03T10:11:16.121Z,15.90
2017-10-03T10:13:45.190Z,15.70
2017-10-03T10:16:13.525Z,15.70
2017-10-03T10:18:41.846Z,15.80
2017-10-03T10:21:10.182Z,16.00
2017-10-03T10:23:38.497Z,16.10
2017-10-03T10:26:07.138Z,16.10
2017-10-03T10:28:35.450Z,16.10
2017-10-03T10:31:03.769Z,16.10
2017-10-03T10:33:32.107Z,16.10
2017-10-03T10:36:00.415Z,16.10
2017-10-03T10:38:28.764Z,16.10
2017-10-03T10:40:57.074Z,16.10
2017-10-03T10:43:26.167Z,16.20
2017-10-03T10:45:55.255Z,16.30
2017-10-03T10:48:24.351Z,16.30
2017-10-03T10:50:53.420Z,16.30
2017-10-03T10:53:21.843Z,16.20
2017-10-03T10:55:50.159Z,16.40
2017-10-03T10:58:18.453Z,16.50
2017-10-03T11:00:46.775Z,16.60
2017-10-03T11:03:15.074Z,16.70
2017-10-03T11:05:43.401Z,16.60
2017-10-03T11:08:11.730Z,16.50
2017-10-03T11:10:40.199Z,16.50
2017-10-03T11:13:08.514Z,16.70
2017-10-03T11:15:37.610Z,17.00
2017-10-03T11:18:06.726Z,16.90
2017-10-03T11:20:35.043Z,16.90
2017-10-03T11:36:34.999Z,17.00
2017-10-03T11:39:04.070Z,17.00
2017-10-03T11:41:32.372Z,17.00
2017-10-03T11:44:00.715Z,16.80
2017-10-03T11:46:29.025Z,16.80
2017-10-03T11:48:58.127Z,16.80
2017-10-03T11:51:27.183Z,16.80
2017-10-03T11:53:55.530Z,16.80
2017-10-03T11:56:23.835Z,16.80
2017-10-03T11:58:52.186Z,16.70
2017-10-03T12:01:20.533Z,16.80
2017-10-03T12:03:49.118Z,16.70
2017-10-03T12:06:17.453Z,16.80
2017-10-03T12:08:45.772Z,16.90
2017-10-03T12:11:14.123Z,17.00
2017-10-03T12:13:43.003Z,17.00
2017-10-03T12:16:11.389Z,16.90
2017-10-03T12:18:39.772Z,16.70
2017-10-03T12:21:08.298Z,16.30
2017-10-03T12:23:36.698Z,16.20
2017-10-03T12:26:05.150Z,16.00
2017-10-03T12:28:33.483Z,15.90
2017-10-03T12:31:01.803Z,15.90
2017-10-03T12:33:30.161Z,15.90
2017-10-03T12:35:59.235Z,16.00
2017-10-03T12:38:27.714Z,16.00
2017-10-03T12:40:56.812Z,16.20
2017-10-03T12:43:25.919Z,16.30
2017-10-03T12:45:55.007Z,16.40
2017-10-03T12:48:24.150Z,16.40
2017-10-03T12:50:52.493Z,16.30
2017-10-03T12:53:20.826Z,16.30
2017-10-03T12:55:49.173Z,16.10
2017-10-03T12:58:17.525Z,16.00
2017-10-03T13:00:46.739Z,15.90
2017-10-03T13:03:15.134Z,15.80
2017-10-03T13:05:43.450Z,15.90
2017-10-03T13:08:11.790Z,15.90
2017-10-03T13:10:40.152Z,16.00
2017-10-03T13:13:08.466Z,16.00
2017-10-03T13:15:36.787Z,16.10
2017-10-03T13:18:05.127Z,16.10
2017-10-03T13:20:33.447Z,16.20
2017-10-03T13:23:02.529Z,16.40
2017-10-03T13:25:30.810Z,16.40
2017-10-03T13:27:59.154Z,16.50
2017-10-03T13:30:27.480Z,16.60
2017-10-03T13:32:55.937Z,16.70
2017-10-03T13:35:25.010Z,16.70
2017-10-03T13:37:53.334Z,16.60
2017-10-03T13:40:21.672Z,16.60
2017-10-03T13:42:49.974Z,16.50
2017-10-03T13:45:18.351Z,16.40
2017-10-03T13:47:47.410Z,16.20
2017-10-03T13:50:15.751Z,16.20
2017-10-03T13:52:44.039Z,16.10
2017-10-03T13:55:12.449Z,16.10
2017-10-03T13:57:40.755Z,16.00
2017-10-03T14:00:09.081Z,16.00
2017-10-03T14:02:37.397Z,16.00
2017-10-03T14:05:06.470Z,15.80
2017-10-03T14:07:34.779Z,15.80
2017-10-03T14:10:03.104Z,15.80
2017-10-03T14:12:32.259Z,15.80
2017-10-03T14:15:00.574Z,15.70
2017-10-03T14:17:28.914Z,15.80
2017-10-03T14:19:57.226Z,15.70
2017-10-03T14:22:25.538Z,15.70
2017-10-03T14:24:53.816Z,15.80
2017-10-03T14:27:22.916Z,16.00
2017-10-03T14:29:52.011Z,16.20
2017-10-03T14:32:21.074Z,16.50
2017-10-03T14:34:49.445Z,16.40
2017-10-03T14:37:17.726Z,16.70
2017-10-03T14:39:46.067Z,16.80
2017-10-03T14:42:14.369Z,16.80
2017-10-03T14:44:42.661Z,16.80
2017-10-03T14:47:10.957Z,16.90
2017-10-03T14:49:39.277Z,17.00
2017-10-03T14:52:07.593Z,17.00
2017-10-03T14:54:36.029Z,16.90
2017-10-03T14:57:04.335Z,16.70
2017-10-03T14:59:32.663Z,16.50
2017-10-03T15:02:02.122Z,14.90
2017-10-03T15:04:30.443Z,14.80
2017-10-03T15:06:58.746Z,14.40
2017-10-03T15:09:27.070Z,14.00
2017-10-03T15:11:56.162Z,13.70
2017-10-03T15:14:24.467Z,13.60
2017-10-03T15:16:52.799Z,13.60
2017-10-03T15:19:21.115Z,13.50
2017-10-03T15:21:50.212Z,13.50
2017-10-03T15:24:18.531Z,13.50
2017-10-03T15:26:46.870Z,13.50
2017-10-03T15:29:15.174Z,13.50
2017-10-03T15:31:43.730Z,13.50
2017-10-03T15:34:12.057Z,13.50
2017-10-03T15:36:40.372Z,13.50
2017-10-03T15:39:09.459Z,13.50
2017-10-03T15:41:38.542Z,13.60
2017-10-03T15:44:07.655Z,13.60
2017-10-03T15:46:36.042Z,13.50
2017-10-03T15:49:05.143Z,13.60
2017-10-03T15:51:33.470Z,13.50
2017-10-03T15:54:01.831Z,13.50
2017-10-03T15:56:30.156Z,13.40
2017-10-03T16:01:28.930Z,12.80
2017-10-03T16:03:57.233Z,12.80
2017-10-03T16:06:25.575Z,12.60
2017-10-03T16:08:53.898Z,12.50
2017-10-03T16:11:22.247Z,12.40
2017-10-03T16:13:51.322Z,12.40
2017-10-03T16:16:19.759Z,12.30
2017-10-03T16:18:48.099Z,12.30
2017-10-03T16:21:17.181Z,12.30
2017-10-03T16:23:45.527Z,12.30
2017-10-03T16:26:13.863Z,12.40
2017-10-03T16:28:42.986Z,12.40
2017-10-03T16:31:11.298Z,12.30
2017-10-03T16:33:39.729Z,12.40
2017-10-03T16:36:08.790Z,12.40
2017-10-03T16:38:37.910Z,12.40
2017-10-03T16:41:06.232Z,12.40
2017-10-03T16:43:34.575Z,12.40
2017-10-03T16:46:02.874Z,12.40
2017-10-03T16:48:31.375Z,12.40
2017-10-03T16:50:59.699Z,12.40
2017-10-03T16:53:28.025Z,12.40
2017-10-03T16:55:56.373Z,12.40
2017-10-03T16:58:24.705Z,12.50
2017-10-03T17:00:53.836Z,12.40
2017-10-03T17:03:22.160Z,12.30
2017-10-03T17:05:50.515Z,12.40
2017-10-03T17:08:18.838Z,12.30
2017-10-03T17:10:48.168Z,12.30
2017-10-03T17:13:16.497Z,12.20
2017-10-03T17:15:45.611Z,12.20
2017-10-03T17:18:14.722Z,12.20
2017-10-03T17:20:43.151Z,12.20
2017-10-03T17:23:11.508Z,12.20
2017-10-03T17:25:39.842Z,12.20
2017-10-03T17:28:09.065Z,12.20
2017-10-03T17:30:38.125Z,12.20
2017-10-03T17:33:07.260Z,12.20
2017-10-03T17:35:35.576Z,12.10
2017-10-03T17:38:03.911Z,12.20
2017-10-03T17:40:32.229Z,12.10
2017-10-03T17:43:00.682Z,12.10
2017-10-03T17:45:28.979Z,12.00
2017-10-03T17:47:57.274Z,12.00
2017-10-03T17:50:27.108Z,11.90
2017-10-03T17:52:56.204Z,12.00
2017-10-03T17:55:25.300Z,12.00
2017-10-03T17:57:54.376Z,12.10
2017-10-03T18:00:22.707Z,12.00
2017-10-03T18:02:51.024Z,12.10
2017-10-03T18:05:19.360Z,12.20
2017-10-03T18:07:47.684Z,12.20
2017-10-03T18:10:16.023Z,12.20
2017-10-03T18:12:44.356Z,12.20
2017-10-03T18:15:12.995Z,12.20
2017-10-03T18:17:41.357Z,12.20
2017-10-03T18:20:09.654Z,12.20
2017-10-03T18:22:37.972Z,12.10
2017-10-03T18:25:06.275Z,12.10
2017-10-03T18:27:34.642Z,12.10
2017-10-03T18:30:03.700Z,12.00
2017-10-03T18:32:32.810Z,12.00
2017-10-03T18:35:01.165Z,11.90
2017-10-03T18:37:29.528Z,11.90
2017-10-03T18:39:57.842Z,12.00
2017-10-03T18:42:26.284Z,12.00
2017-10-03T18:44:54.624Z,11.90
